createdAt,value
2023-03-29T00:00:28.259Z,69.61
2023-03-29T00:01:35.414Z,69.84
2023-03-29T00:02:27.145Z,69.81
2023-03-29T00:03:26.537Z,69.94
2023-03-29T00:04:26.087Z,70.22
2023-03-29T00:05:26.158Z,70.37
2023-03-29T00:06:26.084Z,70.17
2023-03-29T00:07:27.180Z,70.02
2023-03-29T00:08:26.025Z,70.06
2023-03-29T00:09:26.016Z,69.95
2023-03-29T00:10:26.014Z,69.66
2023-03-29T00:11:26.206Z,69.31
2023-03-29T00:12:25.990Z,69.63
2023-03-29T00:13:26.031Z,70.27
2023-03-29T00:14:25.944Z,70.18
2023-03-29T00:15:26.029Z,69.91
2023-03-29T00:16:25.922Z,69.42
2023-03-29T00:17:27.011Z,68.95
2023-03-29T00:18:25.881Z,69.46
2023-03-29T00:19:25.986Z,70.21
2023-03-29T00:20:25.873Z,70.36
2023-03-29T00:21:25.894Z,70.16
2023-03-29T00:22:25.819Z,70.13
2023-03-29T00:23:25.938Z,70.04
2023-03-29T00:24:26.269Z,69.54
2023-03-29T00:25:25.809Z,69.40
2023-03-29T00:26:25.771Z,69.83
2023-03-29T00:27:27.969Z,69.99
2023-03-29T00:28:25.775Z,69.98
2023-03-29T00:29:25.880Z,69.74
2023-03-29T00:30:25.771Z,69.54
2023-03-29T00:31:25.817Z,69.39
2023-03-29T00:32:25.738Z,69.37
2023-03-29T00:33:25.776Z,69.60
2023-03-29T00:34:25.678Z,69.85
2023-03-29T00:35:26.767Z,69.76
2023-03-29T00:36:26.113Z,69.73
2023-03-29T00:37:25.860Z,69.69
2023-03-29T00:38:26.246Z,69.60
2023-03-29T00:39:25.782Z,69.52
2023-03-29T00:40:25.592Z,69.58
2023-03-29T00:41:25.717Z,69.77
2023-03-29T00:42:25.975Z,70.08
2023-03-29T00:43:25.670Z,69.96
2023-03-29T00:44:25.552Z,69.06
2023-03-29T00:45:25.577Z,68.87
2023-03-29T00:46:25.571Z,69.75
2023-03-29T00:47:25.583Z,70.17
2023-03-29T00:48:25.524Z,70.16
2023-03-29T00:49:25.584Z,70.48
2023-03-29T00:50:25.454Z,70.50
2023-03-29T00:51:25.610Z,69.55
2023-03-29T00:52:25.438Z,69.43
2023-03-29T00:53:25.511Z,69.84
2023-03-29T00:54:25.540Z,69.88
2023-03-29T00:55:25.405Z,69.90
2023-03-29T00:56:25.388Z,69.65
2023-03-29T00:57:27.815Z,70.09
2023-03-29T00:58:25.344Z,70.51
2023-03-29T00:59:25.447Z,70.17
2023-03-29T01:00:25.370Z,70.16
2023-03-29T01:01:25.454Z,70.58
2023-03-29T01:02:25.316Z,70.76
2023-03-29T01:03:25.565Z,70.57
2023-03-29T01:04:25.409Z,70.41
2023-03-29T01:05:25.440Z,70.10
2023-03-29T01:06:25.367Z,69.52
2023-03-29T01:07:25.311Z,69.43
2023-03-29T01:08:25.223Z,68.98
2023-03-29T01:09:25.335Z,68.48
2023-03-29T01:10:25.205Z,69.36
2023-03-29T01:11:25.236Z,69.07
2023-03-29T01:12:25.196Z,68.93
2023-03-29T01:13:25.244Z,68.54
2023-03-29T01:14:25.174Z,67.79
2023-03-29T01:15:26.344Z,67.30
2023-03-29T01:16:25.228Z,68.39
2023-03-29T01:17:25.203Z,68.49
2023-03-29T01:18:25.117Z,68.38
2023-03-29T01:19:25.196Z,68.05
2023-03-29T01:20:25.080Z,68.02
2023-03-29T01:21:26.290Z,67.81
2023-03-29T01:22:25.075Z,68.79
2023-03-29T01:23:25.208Z,69.01
2023-03-29T01:24:25.066Z,68.81
2023-03-29T01:25:25.486Z,68.60
2023-03-29T01:26:25.116Z,68.29
2023-03-29T01:27:25.272Z,68.41
2023-03-29T01:28:25.038Z,69.29
2023-03-29T01:29:25.185Z,69.21
2023-03-29T01:30:24.982Z,69.20
2023-03-29T01:31:25.002Z,69.10
2023-03-29T01:32:24.948Z,69.56
2023-03-29T01:33:25.044Z,69.50
2023-03-29T01:34:24.901Z,69.33
2023-03-29T01:35:25.006Z,69.37
2023-03-29T01:36:24.911Z,69.23
2023-03-29T01:37:25.006Z,68.82
2023-03-29T01:38:24.852Z,68.81
2023-03-29T01:39:24.924Z,68.66
2023-03-29T01:40:24.813Z,68.91
2023-03-29T01:41:25.911Z,69.06
2023-03-29T01:42:24.816Z,69.36
2023-03-29T01:43:24.848Z,69.89
2023-03-29T01:44:24.783Z,70.04
2023-03-29T01:45:24.862Z,70.24
2023-03-29T01:46:24.812Z,70.20
2023-03-29T01:47:24.799Z,70.43
2023-03-29T01:48:24.725Z,70.71
2023-03-29T01:49:24.787Z,71.10
2023-03-29T01:50:24.700Z,71.07
2023-03-29T01:51:24.687Z,70.81
2023-03-29T01:52:24.659Z,70.03
2023-03-29T01:53:26.816Z,69.85
2023-03-29T01:54:24.665Z,69.71
2023-03-29T01:55:24.784Z,70.13
2023-03-29T01:56:24.612Z,69.94
2023-03-29T01:57:24.652Z,69.58
2023-03-29T01:58:24.586Z,69.35
2023-03-29T01:59:24.657Z,69.55
2023-03-29T02:00:24.983Z,69.12
2023-03-29T02:01:24.659Z,69.05
2023-03-29T02:02:24.647Z,69.09
2023-03-29T02:03:24.928Z,69.32
2023-03-29T02:04:24.602Z,69.30
2023-03-29T02:05:24.722Z,69.50
2023-03-29T02:06:24.576Z,69.72
2023-03-29T02:07:24.504Z,69.62
2023-03-29T02:08:24.502Z,69.71
2023-03-29T02:09:25.549Z,70.17
2023-03-29T02:10:24.439Z,70.05
2023-03-29T02:11:24.616Z,70.24
2023-03-29T02:12:24.433Z,70.43
2023-03-29T02:13:24.534Z,70.84
2023-03-29T02:14:24.387Z,71.51
2023-03-29T02:15:24.586Z,72.07
2023-03-29T02:16:24.360Z,72.25
2023-03-29T02:17:24.599Z,72.22
2023-03-29T02:18:24.344Z,71.99
2023-03-29T02:19:24.398Z,71.73
2023-03-29T02:20:24.304Z,71.95
2023-03-29T02:21:25.331Z,71.68
2023-03-29T02:22:24.304Z,71.70
2023-03-29T02:23:24.313Z,71.38
2023-03-29T02:24:24.309Z,71.73
2023-03-29T02:25:26.349Z,71.29
2023-03-29T02:26:24.220Z,71.95
2023-03-29T02:27:24.270Z,72.26
2023-03-29T02:28:24.254Z,72.57
2023-03-29T02:29:25.281Z,72.69
2023-03-29T02:30:24.189Z,72.69
2023-03-29T02:31:24.326Z,72.94
2023-03-29T02:32:24.198Z,72.65
2023-03-29T02:33:24.183Z,72.54
2023-03-29T02:34:24.130Z,72.54
2023-03-29T02:35:45.255Z,72.57
2023-03-29T02:36:24.106Z,72.57
2023-03-29T02:37:24.142Z,72.79
2023-03-29T02:38:24.074Z,72.92
2023-03-29T02:39:24.118Z,72.57
2023-03-29T02:40:24.042Z,72.37
2023-03-29T02:41:24.078Z,72.47
2023-03-29T02:42:24.027Z,72.59
2023-03-29T02:43:25.777Z,72.71
2023-03-29T02:44:23.993Z,72.72
2023-03-29T02:45:24.061Z,72.94
2023-03-29T02:46:24.002Z,73.20
2023-03-29T02:47:24.126Z,73.09
2023-03-29T02:48:23.940Z,72.77
2023-03-29T02:49:23.990Z,72.48
2023-03-29T02:50:23.920Z,72.30
2023-03-29T02:51:24.010Z,71.83
2023-03-29T02:52:23.952Z,71.61
2023-03-29T02:53:23.983Z,71.98
2023-03-29T02:54:23.875Z,72.11
2023-03-29T02:55:23.939Z,72.27
2023-03-29T02:56:23.869Z,72.42
2023-03-29T02:57:23.960Z,72.24
2023-03-29T02:58:23.815Z,72.25
2023-03-29T02:59:23.998Z,72.74
2023-03-29T03:00:23.792Z,73.42
2023-03-29T03:01:23.966Z,73.78
2023-03-29T03:02:23.817Z,73.87
2023-03-29T03:03:26.124Z,73.79
2023-03-29T03:04:23.791Z,73.94
2023-03-29T03:05:23.870Z,73.63
2023-03-29T03:06:23.737Z,73.68
2023-03-29T03:07:23.722Z,73.65
2023-03-29T03:08:23.821Z,74.12
2023-03-29T03:09:23.740Z,74.38
2023-03-29T03:10:23.775Z,74.29
2023-03-29T03:11:23.720Z,74.12
2023-03-29T03:12:23.637Z,74.59
2023-03-29T03:13:23.657Z,74.88
2023-03-29T03:14:23.745Z,74.84
2023-03-29T03:15:23.677Z,74.96
2023-03-29T03:16:23.642Z,75.06
2023-03-29T03:17:23.658Z,74.88
2023-03-29T03:18:23.659Z,74.89
2023-03-29T03:19:23.681Z,74.77
2023-03-29T03:20:23.536Z,74.63
2023-03-29T03:21:23.608Z,74.51
2023-03-29T03:22:23.505Z,74.67
2023-03-29T03:23:23.603Z,74.84
2023-03-29T03:24:23.486Z,74.72
2023-03-29T03:25:23.562Z,74.63
2023-03-29T03:26:23.452Z,74.68
2023-03-29T03:27:23.796Z,74.73
2023-03-29T03:28:23.651Z,75.19
2023-03-29T03:29:23.595Z,75.13
2023-03-29T03:30:23.416Z,75.25
2023-03-29T03:31:44.508Z,75.01
2023-03-29T03:32:23.405Z,75.02
2023-03-29T03:33:23.414Z,75.01
2023-03-29T03:34:23.356Z,74.85
2023-03-29T03:35:23.465Z,74.71
2023-03-29T03:36:23.329Z,74.48
2023-03-29T03:37:23.431Z,74.39
2023-03-29T03:38:23.306Z,74.42
2023-03-29T03:39:23.565Z,74.52
2023-03-29T03:40:23.277Z,74.79
2023-03-29T03:41:23.416Z,75.04
2023-03-29T03:42:23.436Z,74.88
2023-03-29T03:43:23.254Z,75.19
2023-03-29T03:44:23.337Z,75.19
2023-03-29T03:45:24.462Z,75.23
2023-03-29T03:46:23.218Z,75.28
2023-03-29T03:47:23.375Z,75.36
2023-03-29T03:48:23.175Z,75.75
2023-03-29T03:49:23.263Z,75.82
2023-03-29T03:50:23.152Z,75.98
2023-03-29T03:51:23.472Z,76.28
2023-03-29T03:52:23.311Z,76.52
2023-03-29T03:53:23.293Z,76.66
2023-03-29T03:54:23.102Z,76.65
2023-03-29T03:55:23.254Z,76.55
2023-03-29T03:56:23.233Z,76.79
2023-03-29T03:57:23.293Z,76.68
2023-03-29T03:58:23.178Z,76.45
2023-03-29T03:59:23.231Z,76.67
2023-03-29T04:00:23.038Z,76.98
2023-03-29T04:01:23.211Z,76.89
2023-03-29T04:02:23.163Z,77.08
2023-03-29T04:03:23.290Z,77.00
2023-03-29T04:04:23.007Z,77.01
2023-03-29T04:05:25.015Z,77.14
2023-03-29T04:06:23.010Z,76.87
2023-03-29T04:07:23.157Z,76.79
2023-03-29T04:08:22.920Z,76.70
2023-03-29T04:09:22.986Z,76.74
2023-03-29T04:10:22.899Z,76.79
2023-03-29T04:11:23.006Z,76.84
2023-03-29T04:12:22.873Z,76.75
2023-03-29T04:13:24.246Z,76.70
2023-03-29T04:14:22.845Z,76.75
2023-03-29T04:15:22.900Z,76.60
2023-03-29T04:16:22.836Z,76.42
2023-03-29T04:17:22.888Z,76.32
2023-03-29T04:18:22.864Z,76.25
2023-03-29T04:19:22.982Z,75.88
2023-03-29T04:20:22.778Z,75.75
2023-03-29T04:21:22.820Z,75.96
2023-03-29T04:22:22.896Z,76.04
2023-03-29T04:23:24.192Z,76.24
2023-03-29T04:24:22.720Z,76.72
2023-03-29T04:25:22.856Z,77.00
2023-03-29T04:26:22.714Z,76.89
2023-03-29T04:27:22.869Z,76.95
2023-03-29T04:28:22.676Z,76.67
2023-03-29T04:29:22.741Z,76.80
2023-03-29T04:30:22.641Z,76.49
2023-03-29T04:31:22.924Z,76.46
2023-03-29T04:32:22.627Z,76.41
2023-03-29T04:33:22.714Z,76.63
2023-03-29T04:34:22.653Z,77.04
2023-03-29T04:35:22.687Z,77.37
2023-03-29T04:36:22.612Z,77.56
2023-03-29T04:37:22.714Z,77.63
2023-03-29T04:38:22.547Z,77.53
2023-03-29T04:39:22.640Z,77.89
2023-03-29T04:40:22.527Z,77.97
2023-03-29T04:41:22.645Z,78.02
2023-03-29T04:42:22.488Z,77.96
2023-03-29T04:43:22.570Z,78.00
2023-03-29T04:44:22.472Z,78.00
2023-03-29T04:45:22.611Z,77.82
2023-03-29T04:46:22.476Z,77.75
2023-03-29T04:47:22.581Z,77.62
2023-03-29T04:48:22.425Z,77.82
2023-03-29T04:49:24.660Z,77.93
2023-03-29T04:50:22.387Z,78.14
2023-03-29T04:51:22.502Z,78.17
2023-03-29T04:52:24.371Z,78.24
2023-03-29T04:53:22.394Z,78.20
2023-03-29T04:54:22.345Z,77.90
2023-03-29T04:55:22.418Z,77.02
2023-03-29T04:56:22.462Z,76.43
2023-03-29T04:57:23.618Z,76.21
2023-03-29T04:58:24.410Z,76.17
2023-03-29T04:59:22.296Z,76.15
2023-03-29T05:00:22.281Z,76.22
2023-03-29T05:01:22.306Z,76.40
2023-03-29T05:02:22.483Z,76.81
2023-03-29T05:03:22.351Z,77.23
2023-03-29T05:04:22.572Z,77.17
2023-03-29T05:05:22.236Z,76.71
2023-03-29T05:06:22.228Z,76.32
2023-03-29T05:07:22.247Z,76.44
2023-03-29T05:08:22.234Z,76.66
2023-03-29T05:09:22.176Z,76.71
2023-03-29T05:10:22.435Z,76.69
2023-03-29T05:11:22.293Z,76.70
2023-03-29T05:12:24.361Z,76.21
2023-03-29T05:13:22.293Z,76.21
2023-03-29T05:14:22.190Z,76.38
2023-03-29T05:15:22.097Z,76.04
2023-03-29T05:16:22.194Z,75.51
2023-03-29T05:17:22.086Z,74.83
2023-03-29T05:18:23.139Z,74.95
2023-03-29T05:19:22.029Z,75.23
2023-03-29T05:20:22.356Z,75.58
2023-03-29T05:21:22.010Z,75.75
2023-03-29T05:22:23.159Z,75.90
2023-03-29T05:23:22.063Z,75.93
2023-03-29T05:24:22.057Z,75.93
2023-03-29T05:25:21.945Z,76.05
2023-03-29T05:26:25.286Z,76.16
2023-03-29T05:27:21.947Z,76.31
2023-03-29T05:28:22.043Z,76.23
2023-03-29T05:29:21.917Z,76.15
2023-03-29T05:30:21.989Z,76.50
2023-03-29T05:31:21.967Z,76.68
2023-03-29T05:32:21.897Z,76.58
2023-03-29T05:33:21.888Z,76.70
2023-03-29T05:34:21.921Z,76.58
2023-03-29T05:35:21.851Z,76.42
2023-03-29T05:36:21.853Z,76.48
2023-03-29T05:37:21.800Z,76.20
2023-03-29T05:38:21.840Z,76.12
2023-03-29T05:39:21.793Z,76.25
2023-03-29T05:40:22.195Z,76.16
2023-03-29T05:41:22.025Z,76.16
2023-03-29T05:42:21.766Z,76.44
2023-03-29T05:43:21.723Z,76.38
2023-03-29T05:44:21.848Z,76.43
2023-03-29T05:45:21.845Z,77.04
2023-03-29T05:46:21.796Z,76.84
2023-03-29T05:47:21.694Z,76.90
2023-03-29T05:48:21.776Z,77.10
2023-03-29T05:49:21.634Z,77.09
2023-03-29T05:50:21.736Z,77.23
2023-03-29T05:51:21.614Z,77.09
2023-03-29T05:52:21.632Z,77.24
2023-03-29T05:53:21.617Z,77.47
2023-03-29T05:54:21.652Z,77.63
2023-03-29T05:55:21.565Z,77.06
2023-03-29T05:56:21.562Z,76.99
2023-03-29T05:57:21.617Z,76.96
2023-03-29T05:58:21.816Z,76.63
2023-03-29T05:59:21.527Z,76.94
2023-03-29T06:00:21.618Z,76.38
2023-03-29T06:01:21.493Z,75.89
2023-03-29T06:02:21.681Z,75.98
2023-03-29T06:03:22.109Z,76.30
2023-03-29T06:04:21.671Z,76.42
2023-03-29T06:05:21.445Z,76.46
2023-03-29T06:06:21.533Z,76.38
2023-03-29T06:07:21.487Z,76.41
2023-03-29T06:08:21.442Z,75.65
2023-03-29T06:09:21.379Z,75.79
2023-03-29T06:10:21.504Z,76.49
2023-03-29T06:11:21.383Z,76.50
2023-03-29T06:12:21.387Z,76.52
2023-03-29T06:13:21.503Z,76.69
2023-03-29T06:14:42.406Z,76.52
2023-03-29T06:15:21.324Z,76.26
2023-03-29T06:16:21.309Z,76.29
2023-03-29T06:17:21.373Z,76.05
2023-03-29T06:18:21.271Z,76.05
2023-03-29T06:19:21.343Z,76.08
2023-03-29T06:20:21.256Z,76.34
2023-03-29T06:21:21.341Z,76.16
2023-03-29T06:22:21.232Z,76.16
2023-03-29T06:23:21.328Z,76.10
2023-03-29T06:24:21.170Z,75.57
2023-03-29T06:25:21.263Z,75.12
2023-03-29T06:26:21.298Z,74.35
2023-03-29T06:27:21.172Z,74.13
2023-03-29T06:28:21.133Z,74.03
2023-03-29T06:29:22.276Z,73.71
2023-03-29T06:30:21.116Z,73.53
2023-03-29T06:31:21.340Z,73.34
2023-03-29T06:32:21.131Z,72.76
2023-03-29T06:33:21.203Z,72.79
2023-03-29T06:34:21.073Z,73.21
2023-03-29T06:35:21.502Z,72.91
2023-03-29T06:36:21.190Z,72.77
2023-03-29T06:37:21.453Z,72.64
2023-03-29T06:38:21.034Z,73.21
2023-03-29T06:39:22.300Z,73.39
2023-03-29T06:40:20.973Z,73.30
2023-03-29T06:41:21.061Z,73.20
2023-03-29T06:42:21.927Z,73.65
2023-03-29T06:43:22.113Z,73.54
2023-03-29T06:44:21.004Z,72.93
2023-03-29T06:45:23.814Z,72.01
2023-03-29T06:46:21.127Z,71.49
2023-03-29T06:47:20.982Z,71.50
2023-03-29T06:48:20.879Z,71.92
2023-03-29T06:49:20.930Z,71.89
2023-03-29T06:50:20.867Z,71.71
2023-03-29T06:51:23.197Z,71.22
2023-03-29T06:52:20.867Z,70.93
2023-03-29T06:53:20.918Z,71.02
2023-03-29T06:54:21.105Z,71.90
2023-03-29T06:55:20.871Z,72.29
2023-03-29T06:56:20.782Z,70.77
2023-03-29T06:57:21.033Z,71.18
2023-03-29T06:58:20.772Z,71.85
2023-03-29T06:59:20.852Z,70.84
2023-03-29T07:00:20.726Z,70.51
2023-03-29T07:01:20.882Z,69.89
2023-03-29T07:02:20.702Z,69.39
2023-03-29T07:03:20.745Z,68.88
2023-03-29T07:04:20.716Z,68.52
2023-03-29T07:05:20.942Z,69.18
2023-03-29T07:06:20.786Z,69.39
2023-03-29T07:07:20.820Z,69.60
2023-03-29T07:08:20.653Z,69.58
2023-03-29T07:09:20.740Z,68.61
2023-03-29T07:10:20.590Z,67.97
2023-03-29T07:11:20.809Z,67.79
2023-03-29T07:12:20.562Z,67.92
2023-03-29T07:13:21.625Z,67.60
2023-03-29T07:14:20.555Z,67.07
2023-03-29T07:15:20.628Z,65.67
2023-03-29T07:16:20.701Z,65.49
2023-03-29T07:17:20.587Z,66.40
2023-03-29T07:18:20.488Z,63.84
2023-03-29T07:19:20.539Z,63.58
2023-03-29T07:20:20.455Z,64.15
2023-03-29T07:21:20.652Z,64.33
2023-03-29T07:22:20.436Z,65.19
2023-03-29T07:23:22.646Z,64.91
2023-03-29T07:24:20.430Z,64.21
2023-03-29T07:25:20.484Z,64.46
2023-03-29T07:26:28.572Z,63.96
2023-03-29T07:27:21.367Z,63.69
2023-03-29T07:28:42.470Z,62.40
2023-03-29T07:29:20.390Z,62.24
2023-03-29T07:30:20.409Z,60.15
2023-03-29T07:31:20.321Z,59.53
2023-03-29T07:32:20.409Z,58.54
2023-03-29T07:33:21.650Z,57.73
2023-03-29T07:34:20.473Z,57.87
2023-03-29T07:35:20.274Z,58.04
2023-03-29T07:36:20.419Z,58.21
2023-03-29T07:37:20.240Z,58.55
2023-03-29T07:38:20.262Z,59.49
2023-03-29T07:39:20.302Z,59.17
2023-03-29T07:40:20.432Z,56.19
2023-03-29T07:41:20.197Z,55.73
2023-03-29T07:42:21.393Z,57.52
2023-03-29T07:43:20.155Z,56.89
2023-03-29T07:44:20.197Z,56.74
2023-03-29T07:45:20.128Z,55.98
2023-03-29T07:46:21.179Z,53.91
2023-03-29T07:47:20.221Z,52.82
2023-03-29T07:48:20.115Z,53.25
2023-03-29T07:49:22.130Z,52.36
2023-03-29T07:50:20.248Z,51.83
2023-03-29T07:51:20.150Z,52.74
2023-03-29T07:52:20.064Z,53.09
2023-03-29T07:53:20.062Z,52.96
2023-03-29T07:54:20.014Z,54.26
2023-03-29T07:55:20.073Z,53.66
2023-03-29T07:56:19.986Z,52.64
2023-03-29T07:57:20.167Z,51.95
2023-03-29T07:58:19.990Z,53.40
2023-03-29T07:59:20.135Z,53.80
2023-03-29T08:00:20.004Z,54.24
2023-03-29T08:01:22.196Z,54.56
2023-03-29T08:02:19.904Z,54.37
2023-03-29T08:03:20.004Z,53.14
2023-03-29T08:04:20.136Z,52.10
2023-03-29T08:05:29.179Z,53.17
2023-03-29T08:06:20.910Z,52.15
2023-03-29T08:07:20.113Z,52.48
2023-03-29T08:08:19.915Z,50.76
2023-03-29T08:09:19.986Z,52.43
2023-03-29T08:10:19.824Z,51.44
2023-03-29T08:11:20.174Z,49.43
2023-03-29T08:12:19.918Z,51.43
2023-03-29T08:13:19.786Z,51.37
2023-03-29T08:14:19.825Z,49.57
2023-03-29T08:15:19.903Z,50.36
2023-03-29T08:16:19.782Z,50.11
2023-03-29T08:17:19.889Z,51.03
2023-03-29T08:18:19.696Z,51.07
2023-03-29T08:19:20.856Z,50.81
2023-03-29T08:20:19.760Z,50.93
2023-03-29T08:21:19.873Z,50.74
2023-03-29T08:22:19.718Z,50.65
2023-03-29T08:23:19.821Z,48.60
2023-03-29T08:24:20.997Z,48.14
2023-03-29T08:25:19.707Z,48.79
2023-03-29T08:26:19.598Z,48.10
2023-03-29T08:27:19.700Z,47.90
2023-03-29T08:28:19.608Z,47.37
2023-03-29T08:29:19.618Z,45.76
2023-03-29T08:30:20.303Z,45.06
2023-03-29T08:31:19.701Z,47.19
2023-03-29T08:32:19.528Z,47.37
2023-03-29T08:33:20.564Z,47.24
2023-03-29T08:34:19.521Z,47.54
2023-03-29T08:35:19.577Z,45.95
2023-03-29T08:36:19.481Z,45.57
2023-03-29T08:37:19.560Z,46.16
2023-03-29T08:38:19.440Z,45.46
2023-03-29T08:39:19.664Z,45.26
2023-03-29T08:40:19.450Z,45.43
2023-03-29T08:41:20.538Z,46.21
2023-03-29T08:42:19.389Z,45.28
2023-03-29T08:43:19.482Z,45.53
2023-03-29T08:44:19.804Z,46.41
2023-03-29T08:45:20.646Z,45.88
2023-03-29T08:46:19.508Z,46.25
2023-03-29T08:47:20.446Z,45.88
2023-03-29T08:48:19.297Z,47.49
2023-03-29T08:49:19.340Z,45.54
2023-03-29T08:50:19.326Z,45.92
2023-03-29T08:51:19.466Z,45.56
2023-03-29T08:52:19.285Z,46.60
2023-03-29T08:53:19.371Z,46.99
2023-03-29T08:54:19.230Z,46.22
2023-03-29T08:55:20.305Z,45.70
2023-03-29T08:56:19.195Z,45.71
2023-03-29T08:57:19.359Z,46.81
2023-03-29T08:58:19.194Z,45.31
2023-03-29T08:59:20.424Z,45.03
2023-03-29T09:00:19.399Z,45.17
2023-03-29T09:01:19.243Z,44.71
2023-03-29T09:02:19.215Z,45.08
2023-03-29T09:03:19.215Z,44.96
2023-03-29T09:04:19.126Z,44.72
2023-03-29T09:05:21.358Z,45.23
2023-03-29T09:06:19.084Z,44.43
2023-03-29T09:07:19.166Z,44.81
2023-03-29T09:08:19.045Z,44.29
2023-03-29T09:09:19.085Z,45.20
2023-03-29T09:10:19.075Z,45.47
2023-03-29T09:11:19.102Z,44.99
2023-03-29T09:12:18.989Z,44.47
2023-03-29T09:13:19.164Z,43.64
2023-03-29T09:14:19.114Z,44.03
2023-03-29T09:15:19.078Z,44.23
2023-03-29T09:16:19.026Z,45.02
2023-03-29T09:17:19.037Z,45.63
2023-03-29T09:18:19.001Z,44.94
2023-03-29T09:19:18.947Z,46.04
2023-03-29T09:20:18.980Z,45.15
2023-03-29T09:21:18.955Z,45.17
2023-03-29T09:22:19.146Z,46.75
2023-03-29T09:23:18.894Z,46.85
2023-03-29T09:24:18.836Z,47.51
2023-03-29T09:25:18.883Z,47.94
2023-03-29T09:26:18.805Z,44.52
2023-03-29T09:27:18.901Z,43.97
2023-03-29T09:28:18.792Z,45.27
2023-03-29T09:29:18.810Z,45.32
2023-03-29T09:30:18.800Z,44.91
2023-03-29T09:31:18.956Z,45.34
2023-03-29T09:32:18.741Z,44.42
2023-03-29T09:33:18.733Z,45.29
2023-03-29T09:34:18.719Z,44.96
2023-03-29T09:35:18.885Z,44.53
2023-03-29T09:36:18.765Z,43.69
2023-03-29T09:37:18.769Z,44.75
2023-03-29T09:38:18.692Z,44.97
2023-03-29T09:39:18.669Z,44.63
2023-03-29T09:40:18.641Z,43.74
2023-03-29T09:41:39.679Z,44.67
2023-03-29T09:42:18.596Z,44.36
2023-03-29T09:43:18.602Z,43.68
2023-03-29T09:44:30.296Z,44.57
2023-03-29T09:45:19.569Z,45.44
2023-03-29T09:46:19.726Z,45.68
2023-03-29T09:47:18.532Z,45.62
2023-03-29T09:48:18.546Z,46.47
2023-03-29T09:49:18.522Z,45.56
2023-03-29T09:50:30.247Z,46.75
2023-03-29T09:51:19.486Z,45.59
2023-03-29T09:52:18.594Z,45.24
2023-03-29T09:53:18.449Z,46.42
2023-03-29T09:54:18.529Z,45.80
2023-03-29T09:55:18.427Z,46.42
2023-03-29T09:56:18.499Z,45.81
2023-03-29T09:57:18.534Z,49.27
2023-03-29T09:58:19.443Z,49.14
2023-03-29T09:59:18.376Z,48.47
2023-03-29T10:00:18.418Z,48.68
2023-03-29T10:01:18.376Z,45.11
2023-03-29T10:02:18.430Z,44.29
2023-03-29T10:03:18.340Z,45.35
2023-03-29T10:04:18.418Z,45.04
2023-03-29T10:05:18.342Z,45.12
2023-03-29T10:06:18.380Z,44.02
2023-03-29T10:07:18.258Z,43.69
2023-03-29T10:08:19.466Z,44.29
2023-03-29T10:09:18.261Z,44.82
2023-03-29T10:10:18.286Z,45.73
2023-03-29T10:11:18.326Z,45.19
2023-03-29T10:12:18.302Z,45.15
2023-03-29T10:13:18.241Z,44.74
2023-03-29T10:14:18.231Z,43.49
2023-03-29T10:15:29.263Z,44.09
2023-03-29T10:16:19.206Z,43.95
2023-03-29T10:17:18.244Z,44.37
2023-03-29T10:18:18.123Z,43.97
2023-03-29T10:19:18.151Z,43.10
2023-03-29T10:20:18.099Z,42.89
2023-03-29T10:21:18.112Z,41.98
2023-03-29T10:22:18.076Z,42.16
2023-03-29T10:23:18.083Z,41.58
2023-03-29T10:24:18.043Z,41.45
2023-03-29T10:25:18.114Z,41.30
2023-03-29T10:26:18.013Z,40.83
2023-03-29T10:27:18.055Z,41.05
2023-03-29T10:28:17.991Z,41.12
2023-03-29T10:29:18.036Z,40.70
2023-03-29T10:30:17.963Z,40.15
2023-03-29T10:31:18.102Z,40.17
2023-03-29T10:32:17.952Z,39.69
2023-03-29T10:33:17.998Z,40.08
2023-03-29T10:34:17.920Z,40.20
2023-03-29T10:35:17.984Z,40.26
2023-03-29T10:36:17.931Z,40.94
2023-03-29T10:37:17.977Z,39.73
2023-03-29T10:38:17.865Z,39.25
2023-03-29T10:39:17.942Z,38.79
2023-03-29T10:40:17.852Z,39.34
2023-03-29T10:41:17.904Z,39.49
2023-03-29T10:42:17.789Z,39.82
2023-03-29T10:43:17.997Z,39.77
2023-03-29T10:44:17.784Z,40.76
2023-03-29T10:45:22.081Z,42.40
2023-03-29T10:46:17.780Z,42.21
2023-03-29T10:47:17.742Z,41.11
2023-03-29T10:48:19.851Z,42.67
2023-03-29T10:49:17.716Z,41.22
2023-03-29T10:50:17.806Z,40.62
2023-03-29T10:51:17.706Z,41.05
2023-03-29T10:52:17.884Z,41.17
2023-03-29T10:53:17.657Z,40.65
2023-03-29T10:54:17.696Z,41.39
2023-03-29T10:55:17.633Z,40.34
2023-03-29T10:56:17.706Z,40.81
2023-03-29T10:57:17.720Z,42.91
2023-03-29T10:58:17.624Z,41.44
2023-03-29T10:59:17.617Z,41.07
2023-03-29T11:00:17.665Z,41.05
2023-03-29T11:01:17.572Z,40.77
2023-03-29T11:02:17.679Z,39.90
2023-03-29T11:03:19.510Z,40.56
2023-03-29T11:04:17.569Z,40.99
2023-03-29T11:05:17.504Z,42.94
2023-03-29T11:06:17.580Z,43.25
2023-03-29T11:07:17.478Z,43.04
2023-03-29T11:08:18.566Z,44.16
2023-03-29T11:09:17.469Z,43.98
2023-03-29T11:10:17.506Z,44.06
2023-03-29T11:11:17.413Z,43.80
2023-03-29T11:12:18.433Z,43.85
2023-03-29T11:13:17.397Z,44.96
2023-03-29T11:14:17.425Z,44.12
2023-03-29T11:15:17.407Z,43.49
2023-03-29T11:16:17.469Z,43.47
2023-03-29T11:17:17.347Z,43.69
2023-03-29T11:18:17.345Z,45.08
2023-03-29T11:19:17.331Z,45.00
2023-03-29T11:20:17.377Z,45.07
2023-03-29T11:21:17.314Z,44.62
2023-03-29T11:22:17.378Z,44.25
2023-03-29T11:23:17.365Z,44.40
2023-03-29T11:24:17.296Z,44.73
2023-03-29T11:25:17.237Z,44.64
2023-03-29T11:26:18.438Z,45.01
2023-03-29T11:27:17.226Z,45.19
2023-03-29T11:28:17.218Z,45.73
2023-03-29T11:29:17.179Z,45.98
2023-03-29T11:30:17.277Z,46.14
2023-03-29T11:31:17.459Z,45.97
2023-03-29T11:32:18.686Z,46.30
2023-03-29T11:33:17.152Z,45.79
2023-03-29T11:34:18.192Z,46.31
2023-03-29T11:35:17.099Z,46.96
2023-03-29T11:36:17.275Z,46.47
2023-03-29T11:37:17.068Z,45.87
2023-03-29T11:38:17.114Z,46.58
2023-03-29T11:39:17.081Z,45.91
2023-03-29T11:40:19.200Z,46.20
2023-03-29T11:41:17.021Z,47.51
2023-03-29T11:42:17.132Z,46.80
2023-03-29T11:43:17.006Z,46.44
2023-03-29T11:44:17.028Z,46.84
2023-03-29T11:45:16.996Z,47.51
2023-03-29T11:46:17.068Z,48.01
2023-03-29T11:47:16.944Z,48.68
2023-03-29T11:48:16.963Z,49.17
2023-03-29T11:49:16.902Z,48.68
2023-03-29T11:50:16.975Z,49.40
2023-03-29T11:51:16.914Z,49.26
2023-03-29T11:52:16.985Z,49.72
2023-03-29T11:53:16.855Z,50.58
2023-03-29T11:54:16.897Z,50.35
2023-03-29T11:55:17.148Z,50.67
2023-03-29T11:56:16.917Z,50.91
2023-03-29T11:57:16.890Z,51.24
2023-03-29T11:58:16.832Z,51.21
2023-03-29T11:59:16.789Z,51.72
2023-03-29T12:00:16.850Z,51.26
2023-03-29T12:01:18.203Z,51.76
2023-03-29T12:02:16.776Z,52.37
2023-03-29T12:03:16.824Z,52.55
2023-03-29T12:04:17.877Z,51.85
2023-03-29T12:05:16.716Z,52.06
2023-03-29T12:06:16.841Z,52.01
2023-03-29T12:07:16.854Z,52.94
2023-03-29T12:08:16.688Z,52.28
2023-03-29T12:09:16.869Z,52.85
2023-03-29T12:10:18.862Z,52.68
2023-03-29T12:11:16.612Z,51.97
2023-03-29T12:12:16.719Z,52.28
2023-03-29T12:13:16.589Z,52.60
2023-03-29T12:14:16.630Z,52.32
2023-03-29T12:15:16.597Z,53.10
2023-03-29T12:16:16.736Z,52.63
2023-03-29T12:17:16.549Z,52.88
2023-03-29T12:18:16.556Z,52.68
2023-03-29T12:19:16.511Z,52.77
2023-03-29T12:20:16.577Z,53.94
2023-03-29T12:21:16.506Z,53.37
2023-03-29T12:22:17.511Z,52.44
2023-03-29T12:23:16.456Z,52.41
2023-03-29T12:24:37.496Z,53.76
2023-03-29T12:25:18.174Z,54.09
2023-03-29T12:26:16.516Z,52.65
2023-03-29T12:27:16.431Z,53.24
2023-03-29T12:28:16.447Z,54.93
2023-03-29T12:29:16.375Z,53.47
2023-03-29T12:30:18.535Z,52.50
2023-03-29T12:31:16.380Z,52.14
2023-03-29T12:32:16.516Z,52.19
2023-03-29T12:33:16.495Z,52.84
2023-03-29T12:34:16.360Z,52.80
2023-03-29T12:35:16.296Z,53.57
2023-03-29T12:36:16.554Z,52.84
2023-03-29T12:37:16.275Z,53.21
2023-03-29T12:38:16.300Z,53.20
2023-03-29T12:39:16.277Z,53.74
2023-03-29T12:40:16.473Z,53.63
2023-03-29T12:41:16.222Z,54.68
2023-03-29T12:42:16.219Z,53.34
2023-03-29T12:43:16.199Z,52.95
2023-03-29T12:44:16.241Z,53.52
2023-03-29T12:45:16.198Z,54.07
2023-03-29T12:46:17.334Z,53.23
2023-03-29T12:47:16.139Z,53.37
2023-03-29T12:48:17.202Z,52.76
2023-03-29T12:49:16.121Z,53.19
2023-03-29T12:50:16.178Z,53.35
2023-03-29T12:51:16.107Z,53.60
2023-03-29T12:52:16.091Z,53.78